Main page
METAR-TAF:

METAR-TAF

Airports :

Tolmachevo Airport

Novosibirsk, Russia

latitude: 55-01N, longitude: 082-38E, elevation: 111 m

Current weather observation

The report was made 11 minutes ago, at 12:00 UTC
Wind 6 kt from the South/Southeast
Temperature 8°C
Humidity 36%
Pressure 1020 hPa
Visibility 10 km or more
no clouds below 1500 m and no cumulonimbus

METAR: UNNT 011200Z 15003MPS CAVOK 08/M06 Q1020 R25/150060 R16/090070 NOSIG RMK QFE755/1007

Time: 19:11 (12:11 UTC)

Forecast

The report was made 1 hour and 11 minutes ago, at 11:00 UTC
Forecast valid from 01 at 12 UTC to 02 at 12 UTC
Wind 6 kt from the South/Southeast with gusts up to 16 kt
Visibility 10 km or more
no clouds below 1500 m and no cumulonimbus
Becoming
from 02 at 02 UTC to 02 at 05 UTC
Wind 16 kt from the South with gusts up to 29 kt

TAF: UNNT 011100Z 0112/0212 15003G08MPS CAVOK BECMG 0202/0205 17008G15MPS

Weather observations and forecasts of more than 4000 airports (METAR and TAF reports).

The available stations are represented by yellow and red dots on the map.

Hover mouse over dot to see the name of the station.

Then click to see weather observations and forecasts.

To change the map : click on the green buttons with a black cross to zoom in, on the green button with a dash to zoom out, or on the green arrows for adjacent maps.


METAR-TAF: